Time;durP1;ratioP1;P1;durP2;ratioP2;P2;SDS_P1;SDS_P2;PMS_P1;PMS_P2;Temp;Humidity;BMP_temperature;BMP_pressure;BME280_temperature;BME280_humidity;BME280_pressure;Samples;Min_cycle;Max_cycle;Signal;HPM_P1;HPM_P2
2023/03/25 00:00:29;;;;;;;26.90;15.05;;;13.20;99.90;;;;;;5034459;28;20067;-71
2023/03/25 00:02:56;;;;;;;24.98;14.57;;;13.30;99.90;;;;;;5026181;28;20059;-71
2023/03/25 00:05:28;;;;;;;25.55;14.05;;;13.30;99.90;;;;;;5049028;28;20138;-70
2023/03/25 00:07:58;;;;;;;20.67;13.90;;;13.30;99.90;;;;;;5026978;28;20055;-71
2023/03/25 00:10:30;;;;;;;18.60;13.65;;;13.10;99.90;;;;;;5037268;23;20037;-71
2023/03/25 00:13:03;;;;;;;23.80;13.38;;;12.90;99.90;;;;;;5037901;28;20060;-73
2023/03/25 00:15:38;;;;;;;19.35;13.95;;;12.80;99.90;;;;;;5033020;28;20464;-70
2023/03/25 00:18:06;;;;;;;19.13;13.20;;;12.70;99.90;;;;;;5001467;28;20449;-73
2023/03/25 00:20:33;;;;;;;21.02;13.60;;;12.80;99.90;;;;;;5034281;28;20083;-70
2023/03/25 00:23:03;;;;;;;18.08;12.93;;;12.90;99.90;;;;;;5040330;28;20045;-71
2023/03/25 00:25:31;;;;;;;22.60;13.73;;;12.90;99.90;;;;;;5047628;28;20456;-69
2023/03/25 00:27:58;;;;;;;22.30;13.52;;;12.90;99.90;;;;;;5049237;28;20386;-71
2023/03/25 00:30:25;;;;;;;17.63;13.18;;;12.90;99.90;;;;;;5040429;28;20144;-71
2023/03/25 00:32:53;;;;;;;20.63;13.48;;;12.90;99.90;;;;;;5052731;28;20072;-70
2023/03/25 00:35:22;;;;;;;19.13;13.73;;;13.00;99.90;;;;;;5050349;28;20041;-71
2023/03/25 00:37:56;;;;;;;18.65;13.88;;;12.90;99.90;;;;;;5033366;28;20061;-71
2023/03/25 00:40:24;;;;;;;18.40;13.48;;;12.90;99.90;;;;;;5042605;28;20073;-71
2023/03/25 00:42:51;;;;;;;20.58;13.68;;;12.90;99.90;;;;;;5033930;28;20029;-71
2023/03/25 00:45:19;;;;;;;18.85;14.00;;;12.90;99.90;;;;;;5045563;28;20049;-71
2023/03/25 00:47:46;;;;;;;25.05;14.85;;;12.80;99.90;;;;;;5053641;28;20495;-70
2023/03/25 00:50:13;;;;;;;18.42;13.00;;;12.80;99.90;;;;;;5036503;28;20061;-71
2023/03/25 00:52:41;;;;;;;20.23;13.88;;;12.70;99.90;;;;;;5019201;28;20080;-71
2023/03/25 00:55:08;;;;;;;25.75;15.07;;;12.70;99.90;;;;;;5036598;28;20049;-73
2023/03/25 00:57:36;;;;;;;31.95;17.55;;;12.40;99.90;;;;;;5036850;28;20369;-72
2023/03/25 01:00:10;;;;;;;24.55;15.15;;;12.40;99.90;;;;;;5035653;28;20048;-69
2023/03/25 01:02:40;;;;;;;23.20;15.50;;;12.10;99.90;;;;;;5057242;28;20037;-71
2023/03/25 01:05:09;;;;;;;25.92;15.20;;;12.20;99.90;;;;;;5036501;28;20393;-69
2023/03/25 01:07:37;;;;;;;18.83;14.50;;;12.10;99.90;;;;;;5047222;28;20037;-72
2023/03/25 01:10:05;;;;;;;27.27;14.65;;;12.10;99.90;;;;;;5054993;28;20057;-70
2023/03/25 01:12:32;;;;;;;22.55;15.77;;;12.00;99.90;;;;;;5054475;28;20045;-71
2023/03/25 01:15:00;;;;;;;21.33;14.07;;;12.00;99.90;;;;;;5048312;28;20531;-70
2023/03/25 01:17:30;;;;;;;22.00;13.75;;;11.80;99.90;;;;;;5056950;28;20039;-70
2023/03/25 01:19:58;;;;;;;19.13;12.95;;;11.90;99.90;;;;;;5056658;28;20044;-71
2023/03/25 01:22:25;;;;;;;19.77;12.13;;;11.90;99.90;;;;;;5039694;28;20476;-70
2023/03/25 01:24:52;;;;;;;19.40;12.30;;;12.00;99.90;;;;;;5053211;28;20131;-71
2023/03/25 01:27:19;;;;;;;20.67;12.35;;;12.10;99.90;;;;;;5061283;28;20447;-70
2023/03/25 01:29:46;;;;;;;18.77;12.10;;;12.00;99.90;;;;;;5056423;28;20041;-70
2023/03/25 01:32:14;;;;;;;15.57;11.93;;;12.00;99.90;;;;;;5052487;28;20633;-69
2023/03/25 01:34:41;;;;;;;17.73;11.00;;;12.00;99.90;;;;;;5027010;28;20040;-70
2023/03/25 01:37:09;;;;;;;17.33;11.45;;;11.80;99.90;;;;;;5033901;28;20045;-69
2023/03/25 01:39:37;;;;;;;15.07;10.77;;;11.50;99.90;;;;;;5035293;28;20505;-70
2023/03/25 01:42:04;;;;;;;16.50;11.38;;;11.40;99.90;;;;;;5018260;28;20048;-70
2023/03/25 01:44:38;;;;;;;17.90;11.55;;;10.90;99.90;;;;;;5043248;28;20503;-71
2023/03/25 01:47:28;;;;;;;15.85;10.93;;;10.50;99.90;;;;;;5053855;28;20037;-71
2023/03/25 01:49:58;;;;;;;23.77;11.80;;;10.40;99.90;;;;;;5048416;28;20377;-72
2023/03/25 01:52:28;;;;;;;17.95;12.05;;;10.20;99.90;;;;;;5034949;28;20041;-72
2023/03/25 01:54:57;;;;;;;17.25;10.68;;;10.10;99.90;;;;;;5018476;28;20053;-72
2023/03/25 01:57:25;;;;;;;16.95;11.30;;;10.20;99.90;;;;;;5034530;28;20421;-70
2023/03/25 01:59:54;;;;;;;29.73;12.18;;;10.10;99.90;;;;;;5061317;28;20124;-70
2023/03/25 02:02:35;;;;;;;;;;;10.30;99.90;;;;;;5056116;28;20028;-71
2023/03/25 02:05:17;;;;;;;16.15;10.52;;;10.70;99.90;;;;;;5059365;28;19966;-71
2023/03/25 02:08:04;;;;;;;22.58;11.05;;;11.00;99.90;;;;;;5051821;28;20045;-71
2023/03/25 02:10:32;;;;;;;15.27;11.63;;;11.30;99.90;;;;;;5051788;28;20037;-71
2023/03/25 02:13:03;;;;;;;16.10;11.25;;;11.40;99.90;;;;;;5052047;28;20053;-70
2023/03/25 02:15:41;;;;;;;16.08;11.40;;;11.40;99.90;;;;;;5051689;28;20050;-72
2023/03/25 02:18:43;;;;;;;15.93;10.82;;;11.30;99.90;;;;;;5064815;28;20490;-71
2023/03/25 02:21:22;;;;;;;14.35;10.45;;;11.10;99.90;;;;;;5052083;28;20067;-71
2023/03/25 02:24:12;;;;;;;15.85;10.38;;;11.00;99.90;;;;;;5038473;28;20484;-70
2023/03/25 02:27:02;;;;;;;19.75;10.73;;;11.10;99.90;;;;;;5051578;28;20057;-72
2023/03/25 02:30:07;;;;;;;16.25;10.40;;;11.40;99.90;;;;;;5051539;28;20496;-72
2023/03/25 02:32:43;;;;;;;14.80;10.70;;;11.40;99.90;;;;;;5051517;28;20045;-71
2023/03/25 02:35:32;;;;;;;16.08;10.82;;;11.10;99.90;;;;;;5060436;28;20462;-73
2023/03/25 02:38:16;;;;;;;16.40;10.20;;;11.10;99.90;;;;;;5052229;28;20057;-70
2023/03/25 02:41:04;;;;;;;14.75;10.07;;;11.40;99.90;;;;;;5035336;28;20060;-72
2023/03/25 02:43:40;;;;;;;17.42;10.52;;;11.40;99.90;;;;;;5062754;28;20048;-73
2023/03/25 02:46:12;;;;;;;17.20;10.85;;;11.00;99.90;;;;;;5057206;28;20033;-72
2023/03/25 02:48:51;;;;;;;15.70;10.90;;;10.70;99.90;;;;;;5036665;28;20049;-72
2023/03/25 02:51:31;;;;;;;16.48;11.13;;;10.80;99.90;;;;;;5036712;28;20362;-72
2023/03/25 02:54:10;;;;;;;17.95;11.32;;;10.80;99.90;;;;;;5019529;28;20044;-72
2023/03/25 02:56:44;;;;;;;15.45;10.65;;;10.80;99.90;;;;;;5033471;28;20040;-70
2023/03/25 02:59:16;;;;;;;16.92;10.63;;;11.00;99.90;;;;;;5031000;28;20404;-73
2023/03/25 03:01:44;;;;;;;14.18;10.13;;;11.20;99.90;;;;;;5050936;28;20388;-72
2023/03/25 03:04:11;;;;;;;13.93;10.00;;;11.20;99.90;;;;;;5017538;28;20128;-71
2023/03/25 03:06:41;;;;;;;13.68;10.02;;;10.90;99.90;;;;;;5064346;28;20055;-70
2023/03/25 03:09:43;;;;;;;15.30;9.88;;;10.60;99.90;;;;;;5070551;28;20056;-71
2023/03/25 03:12:14;;;;;;;14.30;10.38;;;10.60;99.90;;;;;;5033740;28;20136;-70
2023/03/25 03:15:03;;;;;;;13.85;10.40;;;10.50;99.90;;;;;;5046459;28;20047;-70
2023/03/25 03:17:54;;;;;;;18.15;10.43;;;10.50;99.90;;;;;;5061008;28;20056;-71
2023/03/25 03:21:05;;;;;;;13.32;10.40;;;10.60;99.90;;;;;;5027329;23;20521;-70
2023/03/25 03:24:06;;;;;;;17.90;10.38;;;10.50;99.90;;;;;;5013691;28;20041;-70
2023/03/25 03:26:42;;;;;;;14.20;9.77;;;10.20;99.90;;;;;;4994176;28;20045;-69
2023/03/25 03:29:18;;;;;;;12.25;9.23;;;10.10;99.90;;;;;;5012837;28;20094;-71
2023/03/25 03:32:06;;;;;;;16.25;10.15;;;10.40;99.90;;;;;;5022847;28;20042;-70
2023/03/25 03:34:58;;;;;;;15.90;10.32;;;10.20;99.90;;;;;;5009764;28;20034;-71
2023/03/25 03:37:33;;;;;;;12.80;10.35;;;10.20;99.90;;;;;;5009434;28;20060;-72
2023/03/25 03:40:03;;;;;;;14.90;10.93;;;10.60;99.90;;;;;;5045931;28;20409;-69
2023/03/25 03:43:08;;;;;;;15.73;10.63;;;10.70;99.90;;;;;;5013723;28;20392;-72
2023/03/25 03:45:47;;;;;;;12.30;9.75;;;10.70;99.90;;;;;;4997687;28;20046;-71
2023/03/25 03:48:44;;;;;;;19.80;10.15;;;10.70;99.90;;;;;;5019260;28;20053;-70
2023/03/25 03:51:23;;;;;;;14.18;10.02;;;10.60;99.90;;;;;;5009640;28;20054;-69
2023/03/25 03:53:53;;;;;;;13.48;10.20;;;10.70;99.90;;;;;;5009951;28;20053;-71
2023/03/25 03:56:52;;;;;;;12.70;10.05;;;10.60;99.90;;;;;;5029263;28;20045;-70
2023/03/25 03:59:26;;;;;;;14.45;10.30;;;10.60;99.90;;;;;;5026332;28;20081;-70
2023/03/25 04:02:05;;;;;;;14.18;10.65;;;10.60;99.90;;;;;;5022225;28;20127;-70
2023/03/25 04:04:33;;;;;;;15.25;10.82;;;10.50;99.90;;;;;;5036986;28;20495;-70
2023/03/25 04:07:37;;;;;;;19.17;12.05;;;10.60;99.90;;;;;;5054097;28;20105;-71
2023/03/25 04:10:05;;;;;;;19.85;11.98;;;10.60;99.90;;;;;;5053661;28;20041;-70
2023/03/25 04:12:37;;;;;;;19.73;12.95;;;10.50;99.90;;;;;;5054382;28;20048;-71
2023/03/25 04:15:06;;;;;;;19.80;12.52;;;10.40;99.90;;;;;;5053701;28;20045;-71
2023/03/25 04:17:34;;;;;;;16.38;12.15;;;10.20;99.90;;;;;;5036421;28;20048;-72
2023/03/25 04:20:07;;;;;;;16.98;13.07;;;10.40;99.90;;;;;;5053517;28;20049;-72
2023/03/25 04:22:37;;;;;;;15.73;12.27;;;10.50;99.90;;;;;;5036354;28;20045;-71
2023/03/25 04:25:06;;;;;;;20.27;13.68;;;10.50;99.90;;;;;;5053385;28;20029;-70
2023/03/25 04:27:36;;;;;;;18.88;13.23;;;10.50;99.90;;;;;;5023848;28;20077;-70
2023/03/25 04:30:09;;;;;;;;;;;10.50;99.90;;;;;;5001093;28;20392;-71
2023/03/25 04:32:36;;;;;;;17.70;12.98;;;10.20;99.90;;;;;;5047761;28;19927;-73
2023/03/25 04:35:04;;;;;;;23.02;14.07;;;10.00;99.90;;;;;;5012072;28;20361;-72
2023/03/25 04:37:32;;;;;;;18.65;11.80;;;10.10;99.90;;;;;;5046997;28;20042;-72
2023/03/25 04:40:00;;;;;;;15.38;10.38;;;10.10;99.90;;;;;;5026846;28;20068;-69
2023/03/25 04:42:31;;;;;;;19.75;11.15;;;9.70;99.90;;;;;;5035820;28;20408;-72
2023/03/25 04:45:16;;;;;;;15.00;11.20;;;9.50;99.90;;;;;;5055775;22;20048;-72
2023/03/25 04:47:46;;;;;;;14.00;10.95;;;9.30;99.90;;;;;;5068661;28;20045;-70
2023/03/25 04:50:26;;;;;;;17.10;11.63;;;9.20;99.90;;;;;;5039273;28;20494;-71
2023/03/25 04:53:01;;;;;;;16.50;11.07;;;9.40;99.90;;;;;;5052903;28;20037;-71
2023/03/25 04:55:33;;;;;;;17.35;12.93;;;9.60;99.90;;;;;;5033918;28;20038;-73
2023/03/25 04:58:00;;;;;;;21.23;13.70;;;10.10;99.90;;;;;;5053269;28;20395;-72
2023/03/25 05:00:27;;;;;;;19.95;12.38;;;10.10;99.90;;;;;;5054763;28;20040;-72
2023/03/25 05:02:55;;;;;;;19.55;12.40;;;10.20;99.90;;;;;;5038966;28;20412;-72
2023/03/25 05:05:24;;;;;;;24.67;14.10;;;10.30;99.90;;;;;;5037885;28;20513;-71
2023/03/25 05:07:54;;;;;;;24.27;12.73;;;10.30;99.90;;;;;;5035930;28;20128;-72
2023/03/25 05:10:24;;;;;;;18.42;12.93;;;10.40;99.90;;;;;;5070378;28;20040;-73
2023/03/25 05:13:07;;;;;;;22.85;13.85;;;10.50;99.90;;;;;;5055089;28;20071;-72
2023/03/25 05:15:39;;;;;;;20.05;14.73;;;10.50;99.90;;;;;;5031336;28;20439;-71
2023/03/25 05:18:12;;;;;;;21.45;13.23;;;10.50;99.90;;;;;;5035060;28;20041;-72
2023/03/25 05:20:45;;;;;;;19.67;13.57;;;10.60;99.90;;;;;;5049316;23;20620;-72
2023/03/25 05:23:20;;;;;;;19.00;12.95;;;10.40;99.90;;;;;;5016352;28;20370;-71
2023/03/25 05:25:49;;;;;;;20.10;13.15;;;10.50;99.90;;;;;;5045353;28;20072;-72
2023/03/25 05:28:17;;;;;;;19.42;12.60;;;10.70;99.90;;;;;;5035063;28;20051;-73
2023/03/25 05:30:46;;;;;;;20.00;13.38;;;10.70;99.90;;;;;;5035218;28;20041;-72
2023/03/25 05:33:15;;;;;;;18.27;12.98;;;10.70;99.90;;;;;;5039584;28;20416;-70
2023/03/25 05:35:46;;;;;;;21.55;12.80;;;10.90;99.90;;;;;;5035197;28;20120;-70
2023/03/25 05:38:17;;;;;;;19.25;12.52;;;11.10;99.90;;;;;;5052729;28;20609;-72
2023/03/25 05:40:48;;;;;;;20.45;13.75;;;11.20;99.90;;;;;;5017912;28;20037;-72
2023/03/25 05:43:15;;;;;;;18.65;12.95;;;11.30;99.90;;;;;;5044288;28;20428;-71
2023/03/25 05:45:44;;;;;;;18.02;11.35;;;11.40;99.90;;;;;;5033301;28;20361;-69
2023/03/25 05:48:11;;;;;;;16.65;11.90;;;11.50;99.90;;;;;;5033655;28;20045;-71
2023/03/25 05:50:41;;;;;;;14.02;10.32;;;11.60;99.90;;;;;;5018158;28;20037;-71
2023/03/25 05:53:14;;;;;;;15.20;10.90;;;11.50;99.90;;;;;;5033588;28;20118;-73
2023/03/25 05:55:46;;;;;;;15.57;10.40;;;11.40;99.90;;;;;;5020939;28;20048;-71
2023/03/25 05:58:13;;;;;;;18.38;10.52;;;11.10;99.90;;;;;;5044207;28;20500;-72
2023/03/25 06:00:41;;;;;;;16.27;11.32;;;11.30;99.90;;;;;;5047720;28;20034;-70
2023/03/25 06:03:08;;;;;;;22.15;10.90;;;11.60;99.90;;;;;;5042599;28;20052;-71
2023/03/25 06:05:38;;;;;;;16.25;11.02;;;11.60;99.90;;;;;;5030920;28;20049;-70
2023/03/25 06:08:05;;;;;;;12.50;10.23;;;11.20;99.90;;;;;;5043412;28;20386;-71
2023/03/25 06:10:33;;;;;;;17.05;11.43;;;11.00;99.90;;;;;;5050503;28;20123;-71
2023/03/25 06:13:04;;;;;;;19.80;12.75;;;11.10;99.90;;;;;;5051380;28;20037;-71
2023/03/25 06:15:37;;;;;;;20.63;13.80;;;11.50;99.90;;;;;;5022047;28;20056;-72
2023/03/25 06:18:05;;;;;;;23.90;13.45;;;11.60;99.90;;;;;;5050351;28;20064;-71
2023/03/25 06:20:32;;;;;;;19.38;14.15;;;11.60;99.90;;;;;;5034399;28;20071;-71
2023/03/25 06:23:03;;;;;;;19.60;14.15;;;11.40;99.90;;;;;;5031665;28;20049;-71
2023/03/25 06:25:31;;;;;;;21.58;13.98;;;11.60;99.90;;;;;;5050608;28;20041;-73
2023/03/25 06:28:09;;;;;;;23.00;15.18;;;11.40;99.90;;;;;;5019991;28;20076;-71
2023/03/25 06:30:44;;;;;;;22.77;14.02;;;11.60;99.90;;;;;;5029309;28;20440;-72
2023/03/25 06:33:18;;;;;;;26.60;15.23;;;11.60;99.90;;;;;;5046038;28;20053;-72
2023/03/25 06:36:06;;;;;;;21.88;14.50;;;11.60;99.90;;;;;;5036559;28;20091;-70
2023/03/25 06:38:34;;;;;;;24.90;14.68;;;11.80;99.90;;;;;;5038823;28;20559;-72
2023/03/25 06:41:01;;;;;;;22.00;14.48;;;11.80;99.90;;;;;;5049316;28;20040;-74
2023/03/25 06:43:38;;;;;;;19.65;14.15;;;11.70;99.90;;;;;;5050291;28;20381;-72
2023/03/25 06:46:17;;;;;;;22.52;14.38;;;11.70;99.90;;;;;;5035735;28;20049;-72
2023/03/25 06:48:55;;;;;;;21.73;15.30;;;11.80;99.90;;;;;;5023278;28;20041;-72
2023/03/25 06:51:22;;;;;;;21.80;14.60;;;11.90;99.90;;;;;;5051370;28;20051;-72
2023/03/25 06:53:52;;;;;;;19.02;13.88;;;12.00;99.90;;;;;;5049946;28;20047;-72
2023/03/25 06:56:19;;;;;;;25.63;15.23;;;12.00;99.90;;;;;;5014406;28;20190;-70
2023/03/25 06:58:52;;;;;;;21.20;14.90;;;12.00;99.90;;;;;;5029688;28;20040;-71
2023/03/25 07:01:31;;;;;;;19.00;12.93;;;11.90;99.90;;;;;;5024154;28;20060;-71
2023/03/25 07:03:58;;;;;;;18.08;13.60;;;12.00;99.90;;;;;;5018999;28;20067;-72
2023/03/25 07:06:25;;;;;;;19.58;13.88;;;12.10;99.90;;;;;;5038541;28;20076;-72
2023/03/25 07:08:53;;;;;;;23.05;14.68;;;12.20;99.90;;;;;;5030171;28;20042;-73
2023/03/25 07:11:26;;;;;;;25.88;13.73;;;12.20;99.90;;;;;;5030400;28;20382;-72
2023/03/25 07:13:55;;;;;;;18.27;13.90;;;12.20;99.90;;;;;;5050908;28;20036;-71
2023/03/25 07:16:23;;;;;;;20.77;12.93;;;12.30;99.90;;;;;;5032184;28;20072;-72
2023/03/25 07:18:53;;;;;;;23.30;13.48;;;12.40;99.90;;;;;;5031978;28;20061;-72
2023/03/25 07:21:21;;;;;;;20.05;13.88;;;12.70;99.90;;;;;;5028781;28;20452;-72
2023/03/25 07:23:48;;;;;;;19.13;13.43;;;12.70;99.90;;;;;;5033585;28;20049;-71
2023/03/25 07:26:15;;;;;;;19.77;13.38;;;12.80;99.90;;;;;;5029360;28;20511;-75
2023/03/25 07:28:44;;;;;;;19.23;13.23;;;12.80;99.90;;;;;;5017759;28;20469;-73
2023/03/25 07:31:12;;;;;;;23.40;13.52;;;13.10;99.90;;;;;;5033439;28;20048;-73
2023/03/25 07:33:40;;;;;;;18.48;13.73;;;13.10;99.90;;;;;;5027784;28;20445;-74
2023/03/25 07:36:13;;;;;;;18.88;13.73;;;13.30;99.90;;;;;;5052816;28;20046;-73
2023/03/25 07:38:42;;;;;;;23.00;12.93;;;13.20;99.90;;;;;;5023770;28;20388;-73
2023/03/25 07:41:12;;;;;;;19.42;13.20;;;13.20;99.90;;;;;;5053565;28;20067;-72
2023/03/25 07:43:42;;;;;;;21.17;13.60;;;13.20;99.90;;;;;;5035175;28;20045;-73
2023/03/25 07:46:13;;;;;;;20.98;13.50;;;13.00;99.90;;;;;;5017564;28;20053;-72
2023/03/25 07:48:45;;;;;;;18.88;13.40;;;13.00;99.90;;;;;;5050503;28;20041;-73
2023/03/25 07:51:13;;;;;;;22.35;13.52;;;13.20;99.90;;;;;;5034549;28;20392;-69
2023/03/25 07:53:43;;;;;;;18.17;13.20;;;13.30;99.90;;;;;;5048759;28;20116;-69
2023/03/25 07:56:12;;;;;;;21.10;13.35;;;13.40;99.90;;;;;;5016969;28;20432;-74
2023/03/25 07:58:43;;;;;;;22.17;13.82;;;13.40;99.90;;;;;;5051645;28;20037;-71
2023/03/25 08:01:14;;;;;;;20.75;13.50;;;13.40;99.90;;;;;;5040917;28;20056;-69
2023/03/25 08:03:41;;;;;;;20.20;13.75;;;13.50;99.90;;;;;;5037335;28;20041;-70
2023/03/25 08:06:09;;;;;;;21.20;13.27;;;13.60;99.90;;;;;;5042290;28;20535;-71
2023/03/25 08:08:37;;;;;;;18.13;12.18;;;13.70;99.90;;;;;;5054055;28;20037;-72
2023/03/25 08:11:05;;;;;;;19.85;13.13;;;13.70;99.90;;;;;;5051640;28;20063;-72
2023/03/25 08:13:32;;;;;;;17.20;13.15;;;13.80;99.90;;;;;;5049815;28;20056;-71
2023/03/25 08:16:02;;;;;;;18.58;13.32;;;13.70;99.90;;;;;;5043155;28;20045;-72
2023/03/25 08:18:33;;;;;;;20.90;13.27;;;14.00;99.90;;;;;;5052871;28;20049;-73
2023/03/25 08:21:00;;;;;;;20.77;15.20;;;14.40;99.90;;;;;;5051689;28;20049;-72
2023/03/25 08:23:27;;;;;;;19.05;13.20;;;14.50;99.90;;;;;;5058832;28;20614;-71
2023/03/25 08:25:55;;;;;;;17.17;12.27;;;14.70;99.90;;;;;;5043810;28;20040;-72
2023/03/25 08:28:23;;;;;;;18.13;12.95;;;14.90;99.90;;;;;;5053318;28;20128;-73
2023/03/25 08:30:53;;;;;;;16.65;13.02;;;14.90;99.90;;;;;;5066657;28;20480;-71
2023/03/25 08:33:33;;;;;;;17.60;12.57;;;15.00;99.90;;;;;;5059875;28;20060;-70
2023/03/25 08:36:01;;;;;;;18.23;12.88;;;15.10;99.90;;;;;;5047451;28;20506;-72
2023/03/25 08:38:31;;;;;;;18.75;13.18;;;15.30;99.90;;;;;;5060332;28;20090;-72
2023/03/25 08:41:01;;;;;;;24.17;18.00;;;15.40;99.90;;;;;;5048986;28;20411;-71
2023/03/25 08:43:31;;;;;;;20.13;14.88;;;15.70;99.90;;;;;;5062494;28;20048;-72
2023/03/25 08:45:59;;;;;;;24.10;17.80;;;15.50;99.90;;;;;;5044445;28;20045;-74
2023/03/25 08:48:26;;;;;;;19.65;14.18;;;15.80;99.90;;;;;;5061420;28;20508;-71
2023/03/25 08:50:56;;;;;;;21.17;12.45;;;15.80;99.90;;;;;;5040037;28;20051;-72
2023/03/25 08:53:31;;;;;;;136.98;83.60;;;15.80;99.90;;;;;;5033207;28;20051;-72
2023/03/25 08:56:01;;;;;;;88.95;56.30;;;15.90;99.90;;;;;;5031542;28;20044;-70
2023/03/25 08:58:28;;;;;;;115.53;75.55;;;16.10;99.90;;;;;;5072847;28;20045;-71
2023/03/25 09:00:58;;;;;;;55.42;35.70;;;16.50;99.90;;;;;;5031833;28;20041;-69
2023/03/25 09:03:28;;;;;;;20.80;13.32;;;16.60;99.90;;;;;;5033722;28;20044;-74
2023/03/25 09:05:55;;;;;;;145.88;94.65;;;16.50;99.90;;;;;;5052622;28;20048;-72
2023/03/25 09:08:25;;;;;;;104.22;73.20;;;16.40;99.90;;;;;;5036691;28;20511;-72
2023/03/25 09:10:54;;;;;;;64.47;47.00;;;16.60;99.90;;;;;;5060483;28;20055;-69
2023/03/25 09:13:27;;;;;;;25.10;18.20;;;17.00;99.90;;;;;;5038270;28;20048;-73
2023/03/25 09:15:56;;;;;;;23.98;18.15;;;17.20;99.90;;;;;;5054519;28;20056;-73
2023/03/25 09:18:23;;;;;;;32.92;24.05;;;17.30;99.90;;;;;;5022589;28;20124;-72
2023/03/25 09:20:50;;;;;;;15.68;12.10;;;17.50;99.70;;;;;;5043319;28;20052;-73
2023/03/25 09:23:18;;;;;;;56.58;37.40;;;17.50;99.20;;;;;;5029814;28;20073;-70
2023/03/25 09:25:45;;;;;;;26.50;16.60;;;17.50;98.50;;;;;;5042425;28;20488;-71
2023/03/25 09:28:14;;;;;;;17.50;11.77;;;17.30;98.30;;;;;;5029418;28;20053;-72
2023/03/25 09:30:55;;;;;;;13.95;9.93;;;17.30;98.30;;;;;;5027694;28;20083;-75
2023/03/25 09:33:29;;;;;;;13.90;9.85;;;17.50;97.80;;;;;;5024445;28;20046;-73
2023/03/25 09:36:01;;;;;;;13.38;9.57;;;17.70;97.40;;;;;;5030959;28;20048;-74
2023/03/25 09:38:31;;;;;;;13.32;9.75;;;17.60;97.20;;;;;;5026799;28;20077;-74
2023/03/25 09:41:02;;;;;;;12.43;9.45;;;17.60;97.80;;;;;;5032646;28;20037;-74
2023/03/25 09:43:43;;;;;;;13.35;9.27;;;17.60;97.40;;;;;;5032740;28;20049;-76
2023/03/25 09:46:10;;;;;;;15.23;8.60;;;17.60;96.30;;;;;;5041706;28;20049;-74
2023/03/25 09:48:45;;;;;;;12.50;9.55;;;17.50;96.30;;;;;;5047504;28;20068;-74
2023/03/25 09:51:23;;;;;;;12.63;9.25;;;17.60;96.70;;;;;;5038832;28;20056;-73
2023/03/25 09:54:11;;;;;;;12.20;9.00;;;17.80;96.00;;;;;;5046363;28;20133;-74
2023/03/25 09:56:43;;;;;;;11.38;8.60;;;17.80;95.60;;;;;;5015664;28;20038;-75
2023/03/25 09:59:22;;;;;;;11.82;8.93;;;18.30;94.40;;;;;;5027601;28;20050;-74
2023/03/25 10:02:05;;;;;;;10.30;7.72;;;18.70;93.20;;;;;;5042484;28;20241;-71
2023/03/25 10:05:24;;;;;;;11.88;7.93;;;18.90;90.90;;;;;;5025077;28;20080;-69
2023/03/25 10:08:12;;;;;;;11.02;7.43;;;19.20;90.50;;;;;;5032695;28;20045;-70
2023/03/25 10:10:50;;;;;;;13.20;7.60;;;19.40;90.00;;;;;;5040927;28;20140;-70
2023/03/25 10:13:21;;;;;;;163.55;111.35;;;19.50;87.70;;;;;;5036287;28;20040;-71
2023/03/25 10:16:00;;;;;;;75.90;57.88;;;19.80;87.70;;;;;;5024578;28;20483;-71
2023/03/25 10:18:51;;;;;;;238.00;164.00;;;20.00;84.70;;;;;;5034516;28;20048;-72
2023/03/25 10:21:37;;;;;;;21.30;18.23;;;20.00;84.60;;;;;;5032092;28;20049;-70
2023/03/25 10:24:39;;;;;;;11.10;8.32;;;19.90;84.30;;;;;;5038117;28;20042;-72
2023/03/25 10:27:26;;;;;;;9.88;7.45;;;19.90;83.60;;;;;;5046289;28;20412;-72
2023/03/25 10:29:56;;;;;;;11.25;7.50;;;20.10;83.60;;;;;;5037672;28;20407;-70
2023/03/25 10:32:30;;;;;;;9.70;6.70;;;20.10;82.80;;;;;;5036324;28;20029;-71
2023/03/25 10:35:01;;;;;;;9.05;7.07;;;20.10;82.30;;;;;;5046527;28;20049;-69
2023/03/25 10:37:32;;;;;;;94.88;65.78;;;20.30;82.80;;;;;;5046237;28;20074;-72
2023/03/25 10:40:15;;;;;;;42.95;31.13;;;20.30;81.10;;;;;;5047752;28;20040;-74
2023/03/25 10:43:17;;;;;;;14.95;11.10;;;20.60;81.70;;;;;;5035350;28;20034;-73
2023/03/25 10:45:46;;;;;;;12.35;8.23;;;20.60;80.90;;;;;;5046325;28;20037;-73
2023/03/25 10:48:24;;;;;;;14.27;9.23;;;20.50;80.70;;;;;;5044480;28;20044;-72
2023/03/25 10:50:59;;;;;;;11.60;8.32;;;20.10;81.60;;;;;;5045821;28;20353;-72
2023/03/25 10:53:28;;;;;;;10.70;7.35;;;20.10;83.10;;;;;;5043345;28;20463;-73
2023/03/25 10:56:06;;;;;;;17.60;13.10;;;19.80;82.50;;;;;;5043941;28;20056;-69
2023/03/25 10:58:37;;;;;;;90.50;63.22;;;20.00;82.60;;;;;;5048657;28;20431;-72
2023/03/25 11:01:09;;;;;;;;;;;20.20;82.00;;;;;;5045187;28;20063;-74
2023/03/25 11:03:41;;;;;;;15.95;11.65;;;20.50;82.00;;;;;;5048234;28;19924;-71
2023/03/25 11:06:30;;;;;;;13.80;10.25;;;20.20;81.10;;;;;;5041432;28;20048;-72
2023/03/25 11:09:09;;;;;;;15.25;8.43;;;20.10;81.90;;;;;;5048923;28;20447;-72
2023/03/25 11:11:37;;;;;;;11.82;8.10;;;20.10;82.00;;;;;;5035864;28;20071;-72
2023/03/25 11:14:04;;;;;;;12.73;8.30;;;20.00;82.60;;;;;;5036481;28;20041;-71
2023/03/25 11:16:42;;;;;;;13.30;8.50;;;20.00;82.60;;;;;;5040984;28;20063;-73
2023/03/25 11:20:04;;;;;;;14.25;10.07;;;20.00;82.20;;;;;;5023046;28;20598;-73
2023/03/25 11:22:36;;;;;;;13.07;8.18;;;20.20;83.00;;;;;;5018365;28;20045;-70
2023/03/25 11:25:15;;;;;;;11.90;7.93;;;20.30;81.60;;;;;;5037672;28;20044;-75
2023/03/25 11:28:08;;;;;;;12.13;7.82;;;20.40;81.20;;;;;;5038311;28;20033;-73
2023/03/25 11:30:35;;;;;;;10.60;7.82;;;20.50;80.10;;;;;;5038550;28;20045;-73
2023/03/25 11:33:06;;;;;;;10.57;7.40;;;20.50;80.10;;;;;;5039203;28;20037;-72
2023/03/25 11:35:45;;;;;;;12.02;8.07;;;20.30;79.40;;;;;;5035356;28;20522;-71
2023/03/25 11:38:33;;;;;;;13.05;7.72;;;20.40;80.60;;;;;;5037282;28;20047;-70
2023/03/25 11:41:05;;;;;;;14.48;7.78;;;20.30;79.30;;;;;;5038064;28;20055;-71
2023/03/25 11:43:38;;;;;;;12.13;7.78;;;20.20;79.30;;;;;;5035480;28;20147;-69
2023/03/25 11:46:17;;;;;;;12.13;7.50;;;20.10;79.50;;;;;;5036555;28;20516;-69
2023/03/25 11:48:45;;;;;;;9.73;6.90;;;20.10;77.80;;;;;;5052321;22;20106;-69
2023/03/25 11:51:28;;;;;;;12.77;7.45;;;20.10;78.60;;;;;;5046171;28;20361;-69
2023/03/25 11:54:02;;;;;;;57.65;40.78;;;20.00;78.80;;;;;;5030224;28;20602;-69
2023/03/25 11:56:38;;;;;;;40.38;29.42;;;20.10;79.40;;;;;;5047548;28;20064;-69
2023/03/25 11:59:24;;;;;;;13.30;9.60;;;19.90;77.50;;;;;;5044578;28;20059;-69
2023/03/25 12:02:01;;;;;;;9.93;6.85;;;19.80;76.90;;;;;;5024679;28;20159;-69
2023/03/25 12:04:30;;;;;;;10.90;7.00;;;19.70;78.00;;;;;;5028623;28;20036;-71
2023/03/25 12:07:08;;;;;;;11.10;6.60;;;19.80;79.70;;;;;;5009146;28;20405;-71
2023/03/25 12:09:37;;;;;;;12.95;6.75;;;19.80;77.10;;;;;;5025731;28;20037;-72
2023/03/25 12:12:39;;;;;;;9.27;6.50;;;19.80;77.50;;;;;;5024159;28;20132;-72
2023/03/25 12:15:48;;;;;;;12.20;7.47;;;19.90;77.50;;;;;;4996876;28;20062;-70
2023/03/25 12:18:37;;;;;;;;;;;20.00;77.50;;;;;;5001882;28;20045;-70
2023/03/25 12:21:38;;;;;;;11.93;7.78;;;20.20;77.30;;;;;;4988950;28;20272;-69
2023/03/25 12:24:25;;;;;;;11.25;6.68;;;20.70;77.10;;;;;;5020410;28;20385;-71
2023/03/25 12:27:14;;;;;;;65.43;50.90;;;21.00;74.40;;;;;;5002942;28;20034;-70
2023/03/25 12:29:45;;;;;;;20.02;16.27;;;21.20;72.50;;;;;;5028606;28;20034;-72
2023/03/25 12:32:15;;;;;;;33.38;27.40;;;21.30;72.30;;;;;;5012444;28;20397;-70
2023/03/25 12:34:49;;;;;;;12.05;8.68;;;21.70;70.70;;;;;;5026823;28;20048;-70
2023/03/25 12:37:27;;;;;;;9.82;7.00;;;21.90;71.00;;;;;;5029176;28;20041;-71
2023/03/25 12:40:20;;;;;;;13.35;6.95;;;21.90;71.60;;;;;;5012833;28;20123;-70
2023/03/25 12:43:24;;;;;;;11.63;6.05;;;21.60;70.30;;;;;;5029393;28;20416;-71
2023/03/25 12:46:10;;;;;;;16.38;7.00;;;21.60;70.00;;;;;;5005886;28;20529;-70
2023/03/25 12:48:47;;;;;;;12.23;7.38;;;22.00;70.70;;;;;;5041186;23;20064;-70
2023/03/25 12:51:25;;;;;;;11.27;7.80;;;22.20;70.50;;;;;;5033432;28;20439;-71
2023/03/25 12:54:25;;;;;;;9.20;6.50;;;22.50;69.00;;;;;;5016491;28;20123;-71
2023/03/25 12:57:35;;;;;;;8.85;5.95;;;22.90;66.60;;;;;;5049787;28;20032;-72
2023/03/25 13:04:19;;;;;;;8.07;4.83;;;23.80;58.70;;;;;;5021666;23;20052;-70
2023/03/25 13:07:20;;;;;;;6.20;3.97;;;24.20;58.80;;;;;;5020317;28;20365;-71
2023/03/25 13:10:13;;;;;;;8.15;4.50;;;24.20;57.60;;;;;;5001488;28;20038;-71
2023/03/25 13:12:48;;;;;;;7.90;4.93;;;23.70;57.90;;;;;;5039694;28;20028;-72